createdAt,value
2018-12-15T00:01:02.426Z,15.03
2018-12-15T00:03:31.095Z,15.60
2018-12-15T00:06:01.083Z,15.67
2018-12-15T00:08:30.452Z,15.37
2018-12-15T00:10:59.985Z,15.17
2018-12-15T00:13:29.081Z,15.20
2018-12-15T00:15:58.666Z,15.00
2018-12-15T00:18:28.094Z,15.93
2018-12-15T00:20:56.961Z,15.77
2018-12-15T00:23:27.021Z,15.00
2018-12-15T00:25:57.936Z,16.20
2018-12-15T00:28:27.650Z,15.27
2018-12-15T00:30:58.612Z,16.10
2018-12-15T00:33:33.235Z,16.40
2018-12-15T00:36:03.880Z,15.72
2018-12-15T00:38:32.595Z,15.70
2018-12-15T00:41:01.404Z,15.30
2018-12-15T00:43:30.216Z,15.40
2018-12-15T00:45:59.064Z,14.93
2018-12-15T00:48:28.193Z,16.07
2018-12-15T00:50:56.939Z,15.25
2018-12-15T00:53:26.324Z,15.80
2018-12-15T00:55:55.083Z,15.03
2018-12-15T00:58:23.871Z,15.00
2018-12-15T01:00:54.333Z,14.33
2018-12-15T01:03:23.096Z,15.73
2018-12-15T01:05:51.907Z,15.30
2018-12-15T01:08:20.642Z,15.63
2018-12-15T01:10:49.426Z,14.07
2018-12-15T01:13:18.831Z,15.40
2018-12-15T01:15:47.588Z,15.67
2018-12-15T01:18:16.405Z,14.60
2018-12-15T01:20:45.270Z,15.43
2018-12-15T01:23:14.070Z,14.87
2018-12-15T01:25:42.726Z,15.03
2018-12-15T01:28:11.607Z,14.67
2018-12-15T01:30:40.393Z,14.80
2018-12-15T01:33:09.108Z,14.60
2018-12-15T01:35:38.036Z,14.60
2018-12-15T01:38:06.830Z,14.20
2018-12-15T01:40:35.669Z,14.60
2018-12-15T01:43:04.545Z,14.20
2018-12-15T01:45:33.533Z,15.13
2018-12-15T01:48:02.863Z,14.40
2018-12-15T01:50:31.829Z,14.23
2018-12-15T01:53:00.646Z,13.87
2018-12-15T01:55:29.358Z,14.30
2018-12-15T01:57:58.297Z,15.18
2018-12-15T02:00:27.086Z,14.68
2018-12-15T02:02:55.868Z,14.57
2018-12-15T02:05:24.740Z,14.33
2018-12-15T02:07:53.481Z,14.07
2018-12-15T02:10:22.301Z,13.83
2018-12-15T02:12:51.204Z,14.07
2018-12-15T02:15:20.168Z,14.25
2018-12-15T02:17:48.922Z,14.90
2018-12-15T02:20:17.731Z,14.77
2018-12-15T02:22:46.527Z,14.93
2018-12-15T02:25:15.347Z,14.38
2018-12-15T02:27:44.240Z,13.35
2018-12-15T02:30:13.108Z,14.93
2018-12-15T02:32:41.910Z,14.27
2018-12-15T02:35:11.064Z,14.50
2018-12-15T02:37:40.208Z,13.93
2018-12-15T02:40:09.096Z,14.60
2018-12-15T02:42:37.825Z,14.75
2018-12-15T02:45:06.777Z,15.03
2018-12-15T02:47:41.607Z,14.07
2018-12-15T02:50:06.649Z,14.13
2018-12-15T02:52:35.682Z,15.15
2018-12-15T02:55:06.711Z,16.17
2018-12-15T02:57:37.225Z,15.27
2018-12-15T03:00:06.573Z,14.53
2018-12-15T03:02:36.023Z,15.07
2018-12-15T03:05:05.570Z,15.17
2018-12-15T03:07:34.287Z,14.87
2018-12-15T03:10:03.215Z,15.70
2018-12-15T03:12:32.234Z,15.97
2018-12-15T03:15:01.030Z,15.30
2018-12-15T03:17:29.781Z,15.27
2018-12-15T03:20:02.100Z,15.97
2018-12-15T03:22:30.800Z,16.07
2018-12-15T03:24:59.533Z,16.90
2018-12-15T03:27:28.441Z,15.27
2018-12-15T03:29:58.163Z,16.90
2018-12-15T03:32:26.921Z,15.87
2018-12-15T03:34:55.689Z,16.83
2018-12-15T03:37:24.536Z,16.97
2018-12-15T03:39:53.299Z,16.67
2018-12-15T03:42:24.195Z,16.77
2018-12-15T03:44:52.900Z,17.73
2018-12-15T03:47:21.789Z,16.83
2018-12-15T03:49:50.589Z,17.03
2018-12-15T03:52:20.243Z,16.90
2018-12-15T03:54:48.974Z,17.13
2018-12-15T03:57:17.892Z,18.20
2018-12-15T03:59:46.723Z,17.63
2018-12-15T04:02:15.529Z,17.50
2018-12-15T04:04:44.524Z,18.02
2018-12-15T04:07:13.921Z,18.80
2018-12-15T04:09:42.833Z,19.03
2018-12-15T04:12:11.544Z,18.42
2018-12-15T04:14:40.947Z,19.00
2018-12-15T04:17:10.320Z,19.50
2018-12-15T04:19:39.359Z,19.60
2018-12-15T04:22:19.703Z,20.48
2018-12-15T04:24:49.712Z,20.63
2018-12-15T04:27:19.236Z,19.27
2018-12-15T04:29:48.866Z,19.77
2018-12-15T04:32:18.831Z,20.30
2018-12-15T04:34:50.349Z,19.47
2018-12-15T04:37:19.692Z,19.73
2018-12-15T04:39:48.994Z,19.30
2018-12-15T04:42:19.198Z,19.87
2018-12-15T04:44:48.000Z,19.73
2018-12-15T04:47:16.711Z,20.33
2018-12-15T04:49:45.395Z,21.37
2018-12-15T04:52:14.219Z,20.87
2018-12-15T04:54:42.978Z,21.17
2018-12-15T04:59:37.513Z,21.30
2018-12-15T05:02:06.293Z,21.05
2018-12-15T05:04:34.954Z,22.77
2018-12-15T05:07:03.884Z,22.57
2018-12-15T05:09:32.637Z,23.30
2018-12-15T05:12:01.353Z,22.42
2018-12-15T05:14:30.144Z,21.97
2018-12-15T05:16:58.839Z,22.73
2018-12-15T05:19:28.449Z,22.40
2018-12-15T05:21:57.295Z,23.23
2018-12-15T05:24:28.200Z,21.63
2018-12-15T05:26:56.857Z,22.80
2018-12-15T05:29:25.719Z,22.63
2018-12-15T05:31:54.416Z,22.17
2018-12-15T05:34:23.198Z,22.37
2018-12-15T05:36:52.116Z,22.83
2018-12-15T05:39:20.913Z,22.00
2018-12-15T05:41:49.615Z,23.70
2018-12-15T05:44:18.385Z,25.62
2018-12-15T05:46:47.107Z,23.90
2018-12-15T05:49:15.775Z,23.67
2018-12-15T05:51:44.536Z,23.05
2018-12-15T05:54:13.224Z,22.80
2018-12-15T05:56:41.986Z,23.47
2018-12-15T05:59:10.825Z,25.27
2018-12-15T06:01:39.561Z,23.02
2018-12-15T06:04:08.406Z,24.20
2018-12-15T06:06:37.286Z,23.52
2018-12-15T06:09:06.924Z,24.65
2018-12-15T06:11:36.020Z,25.35
2018-12-15T06:14:05.219Z,24.53
2018-12-15T06:16:33.927Z,23.27
2018-12-15T06:19:02.797Z,25.60
2018-12-15T06:21:31.748Z,24.67
2018-12-15T06:24:00.456Z,23.90
2018-12-15T06:26:29.329Z,25.17
2018-12-15T06:28:58.813Z,25.23
2018-12-15T06:31:29.789Z,26.00
2018-12-15T06:34:00.542Z,25.80
2018-12-15T06:36:29.245Z,25.80
2018-12-15T06:38:59.042Z,24.12
2018-12-15T06:41:29.959Z,24.55
2018-12-15T06:43:58.960Z,24.53
2018-12-15T06:46:28.429Z,25.02
2018-12-15T06:48:57.145Z,27.13
2018-12-15T06:51:25.816Z,25.20
2018-12-15T06:53:54.505Z,25.05
2018-12-15T06:56:26.955Z,25.53
2018-12-15T06:58:56.473Z,27.13
2018-12-15T07:01:25.525Z,26.13
2018-12-15T07:03:55.530Z,26.10
2018-12-15T07:06:24.468Z,26.27
2018-12-15T07:08:53.684Z,26.23
2018-12-15T07:11:23.270Z,25.67
2018-12-15T07:13:52.226Z,26.37
2018-12-15T07:16:23.308Z,25.80
2018-12-15T07:18:53.643Z,26.87
2018-12-15T07:21:24.163Z,25.43
2018-12-15T07:23:54.884Z,27.07
2018-12-15T07:26:23.704Z,26.35
2018-12-15T07:28:52.509Z,25.63
2018-12-15T07:31:22.195Z,25.97
2018-12-15T07:33:52.984Z,27.47
2018-12-15T07:36:22.354Z,27.30
2018-12-15T07:38:51.431Z,26.43
2018-12-15T07:41:23.370Z,29.17
2018-12-15T07:43:53.252Z,26.70
2018-12-15T07:46:23.264Z,26.23
2018-12-15T07:48:53.969Z,26.87
2018-12-15T07:51:24.247Z,27.23
2018-12-15T07:53:53.110Z,25.40
2018-12-15T07:56:26.083Z,26.47
2018-12-15T07:58:57.571Z,25.30
2018-12-15T08:01:28.896Z,26.40
2018-12-15T08:03:58.562Z,25.77
2018-12-15T08:06:29.330Z,27.20
2018-12-15T08:08:59.770Z,26.68
2018-12-15T08:11:34.088Z,26.55
2018-12-15T08:14:07.843Z,26.33
2018-12-15T08:16:36.970Z,26.07
2018-12-15T08:19:07.299Z,24.98
2018-12-15T08:21:36.309Z,25.45
2018-12-15T08:24:06.244Z,26.07
2018-12-15T08:26:34.932Z,25.40
2018-12-15T08:29:03.737Z,26.48
2018-12-15T08:31:32.585Z,25.07
2018-12-15T08:34:01.364Z,24.33
2018-12-15T08:36:30.130Z,24.50
2018-12-15T08:38:58.932Z,25.30
2018-12-15T08:41:28.665Z,25.44
2018-12-15T08:43:57.432Z,26.00
2018-12-15T08:46:26.238Z,24.37
2018-12-15T08:48:55.018Z,24.73
2018-12-15T08:51:23.990Z,25.33
2018-12-15T08:53:52.900Z,24.90
2018-12-15T08:56:21.695Z,24.32
2018-12-15T08:58:50.448Z,24.20
2018-12-15T09:01:19.635Z,24.30
2018-12-15T09:03:48.771Z,25.07
2018-12-15T09:06:23.447Z,23.63
2018-12-15T09:08:52.341Z,24.57
2018-12-15T09:11:20.999Z,24.63
2018-12-15T09:13:49.932Z,24.47
2018-12-15T09:16:18.928Z,23.90
2018-12-15T09:18:47.648Z,23.57
2018-12-15T09:21:16.461Z,24.40
2018-12-15T09:23:45.144Z,23.43
2018-12-15T09:26:13.907Z,23.00
2018-12-15T09:28:42.768Z,23.87
2018-12-15T09:31:11.598Z,22.57
2018-12-15T09:33:40.348Z,23.50
2018-12-15T09:36:09.165Z,22.83
2018-12-15T09:38:37.903Z,21.60
2018-12-15T09:41:06.687Z,22.17
2018-12-15T09:43:35.576Z,22.37
2018-12-15T09:46:04.361Z,22.23
2018-12-15T09:48:33.091Z,22.47
2018-12-15T09:51:01.944Z,23.20
2018-12-15T09:53:30.685Z,25.25
2018-12-15T09:55:59.389Z,22.37
2018-12-15T09:58:29.075Z,21.70
2018-12-15T10:00:58.796Z,22.05
2018-12-15T10:03:27.501Z,21.33
2018-12-15T10:05:56.400Z,20.37
2018-12-15T10:08:25.263Z,20.47
2018-12-15T10:10:53.983Z,21.80
2018-12-15T10:13:22.681Z,20.10
2018-12-15T10:15:51.503Z,20.77
2018-12-15T10:18:20.394Z,20.87
2018-12-15T10:20:49.163Z,20.53
2018-12-15T10:23:17.919Z,19.50
2018-12-15T10:25:46.655Z,20.97
2018-12-15T10:28:15.505Z,19.87
2018-12-15T10:32:51.215Z,20.20
2018-12-15T10:35:20.581Z,19.40
2018-12-15T10:37:49.383Z,19.10
2018-12-15T10:40:18.272Z,19.13
2018-12-15T10:42:47.052Z,18.00
2018-12-15T10:45:15.924Z,17.50
2018-12-15T10:47:44.710Z,18.57
2018-12-15T10:50:13.886Z,19.53
2018-12-15T10:52:42.807Z,18.33
2018-12-15T10:55:11.588Z,18.67
2018-12-15T10:57:40.499Z,18.77
2018-12-15T11:00:16.874Z,18.10
2018-12-15T11:02:45.985Z,18.05
2018-12-15T11:05:14.643Z,17.37
2018-12-15T11:07:43.623Z,18.23
2018-12-15T11:10:12.475Z,17.48
2018-12-15T11:12:41.168Z,16.97
2018-12-15T11:15:10.194Z,16.45
2018-12-15T11:17:42.766Z,16.52
2018-12-15T11:20:11.767Z,15.30
2018-12-15T11:22:40.533Z,17.17
2018-12-15T11:25:09.525Z,17.90
2018-12-15T11:27:38.230Z,15.87
2018-12-15T11:30:07.620Z,17.23
2018-12-15T11:32:36.704Z,16.65
2018-12-15T11:35:05.805Z,16.05
2018-12-15T11:37:34.481Z,16.17
2018-12-15T11:40:03.231Z,16.73
2018-12-15T11:42:31.856Z,15.73
2018-12-15T11:45:00.582Z,15.20
2018-12-15T11:47:29.499Z,19.87
2018-12-15T11:49:58.811Z,18.50
2018-12-15T11:52:27.520Z,16.87
2018-12-15T11:54:56.248Z,16.23
2018-12-15T11:57:24.995Z,16.60
2018-12-15T11:59:53.651Z,17.03
2018-12-15T12:02:22.431Z,15.57
2018-12-15T12:04:51.099Z,17.17
2018-12-15T12:07:19.784Z,15.23
2018-12-15T12:09:48.583Z,15.00
2018-12-15T12:12:17.288Z,15.03
2018-12-15T12:14:46.070Z,14.80
2018-12-15T12:17:14.803Z,15.10
2018-12-15T12:19:50.003Z,15.07
2018-12-15T12:22:15.258Z,13.50
2018-12-15T12:24:44.088Z,13.25
2018-12-15T12:27:12.824Z,13.38
2018-12-15T12:29:41.739Z,13.50
2018-12-15T12:32:10.501Z,12.90
2018-12-15T12:34:39.196Z,13.07
2018-12-15T12:37:07.932Z,13.50
2018-12-15T12:39:36.629Z,12.60
2018-12-15T12:42:05.352Z,12.63
2018-12-15T12:44:34.082Z,13.27
2018-12-15T12:47:02.870Z,14.05
2018-12-15T12:49:31.658Z,12.43
2018-12-15T12:52:01.470Z,13.33
2018-12-15T12:54:30.259Z,11.93
2018-12-15T12:56:59.050Z,13.03
2018-12-15T12:59:28.245Z,12.33
2018-12-15T13:01:57.021Z,12.07
2018-12-15T13:04:25.733Z,11.77
2018-12-15T13:06:54.607Z,11.27
2018-12-15T13:09:23.509Z,10.73
2018-12-15T13:11:52.189Z,11.40
2018-12-15T13:14:27.432Z,11.00
2018-12-15T13:16:58.779Z,11.47
2018-12-15T13:19:36.635Z,9.37
2018-12-15T13:22:10.445Z,9.35
2018-12-15T13:24:43.779Z,9.17
2018-12-15T13:27:18.436Z,10.20
2018-12-15T13:29:51.308Z,10.15
2018-12-15T13:32:25.118Z,9.23
2018-12-15T13:34:59.542Z,9.10
2018-12-15T13:42:35.592Z,8.70
2018-12-15T13:45:07.916Z,9.00
2018-12-15T13:47:36.873Z,8.65
2018-12-15T13:50:10.247Z,8.50
2018-12-15T13:52:39.616Z,8.67
2018-12-15T13:55:08.585Z,9.07
2018-12-15T13:57:37.317Z,8.53
2018-12-15T14:00:06.380Z,8.10
2018-12-15T14:02:35.067Z,8.70
2018-12-15T14:05:03.876Z,8.15
2018-12-15T14:07:34.984Z,8.33
2018-12-15T14:10:05.181Z,7.93
2018-12-15T14:12:34.023Z,8.17
2018-12-15T14:15:02.826Z,8.73
2018-12-15T14:17:31.521Z,8.20
2018-12-15T14:20:00.843Z,8.13
2018-12-15T14:22:29.635Z,8.40
2018-12-15T14:24:59.401Z,8.63
2018-12-15T14:27:29.137Z,8.08
2018-12-15T14:29:57.928Z,8.07
2018-12-15T14:32:26.661Z,8.50
2018-12-15T14:34:55.432Z,8.00
2018-12-15T14:37:24.239Z,7.63
2018-12-15T14:39:53.100Z,8.05
2018-12-15T14:42:21.757Z,8.20
2018-12-15T14:44:50.603Z,8.93
2018-12-15T14:47:19.334Z,8.93
2018-12-15T14:49:47.999Z,9.10
2018-12-15T14:52:16.740Z,9.30
2018-12-15T14:54:45.531Z,9.00
2018-12-15T14:57:16.297Z,9.13
2018-12-15T14:59:45.307Z,9.95
2018-12-15T15:02:14.144Z,9.10
2018-12-15T15:04:42.833Z,9.95
2018-12-15T15:07:12.040Z,11.22
2018-12-15T15:09:40.751Z,11.90
2018-12-15T15:12:09.471Z,13.20
2018-12-15T15:14:38.720Z,10.13
2018-12-15T15:17:07.456Z,9.73
2018-12-15T15:19:36.163Z,9.87
2018-12-15T15:22:05.750Z,10.40
2018-12-15T15:24:34.759Z,10.13
2018-12-15T15:27:03.760Z,11.03
2018-12-15T15:29:32.656Z,11.03
2018-12-15T15:32:01.380Z,10.53
2018-12-15T15:34:30.074Z,10.48
2018-12-15T15:36:59.786Z,11.18
2018-12-15T15:39:29.185Z,10.80
2018-12-15T15:41:58.000Z,10.13
2018-12-15T15:44:26.743Z,10.93
2018-12-15T15:46:55.470Z,10.37
2018-12-15T15:49:24.401Z,10.83
2018-12-15T15:51:53.150Z,11.20
2018-12-15T15:54:22.508Z,10.50
2018-12-15T15:56:51.343Z,10.63
2018-12-15T15:59:20.319Z,10.67
2018-12-15T16:01:49.209Z,11.83
2018-12-15T16:04:17.911Z,11.40
2018-12-15T16:06:46.721Z,11.88
2018-12-15T16:09:15.487Z,11.60
2018-12-15T16:11:44.208Z,11.18
2018-12-15T16:14:13.228Z,12.37
2018-12-15T16:16:41.886Z,11.13
2018-12-15T16:19:10.598Z,12.55
2018-12-15T16:21:39.535Z,11.85
2018-12-15T16:24:08.380Z,11.60
2018-12-15T16:26:37.489Z,11.75
2018-12-15T16:29:06.373Z,11.50
2018-12-15T16:34:27.387Z,12.63
2018-12-15T16:36:56.264Z,12.88
2018-12-15T16:39:25.117Z,13.08
2018-12-15T16:41:53.945Z,12.43
2018-12-15T16:44:22.744Z,12.90
2018-12-15T16:46:55.187Z,13.15
2018-12-15T16:49:23.851Z,13.10
2018-12-15T16:51:52.546Z,12.90
2018-12-15T16:54:21.458Z,12.97
2018-12-15T16:56:50.192Z,13.50
2018-12-15T16:59:18.936Z,13.67
2018-12-15T17:01:49.565Z,13.50
2018-12-15T17:04:18.253Z,14.00
2018-12-15T17:06:47.112Z,14.40
2018-12-15T17:09:16.334Z,13.37
2018-12-15T17:11:45.084Z,14.43
2018-12-15T17:14:13.936Z,14.93
2018-12-15T17:16:43.817Z,14.47
2018-12-15T17:19:12.498Z,14.93
2018-12-15T17:21:41.300Z,13.87
2018-12-15T17:24:10.113Z,16.15
2018-12-15T17:26:39.050Z,15.70
2018-12-15T17:29:07.936Z,14.57
2018-12-15T17:31:36.659Z,18.40
2018-12-15T17:34:05.510Z,15.00
2018-12-15T17:36:34.231Z,14.73
2018-12-15T17:39:03.135Z,15.00
2018-12-15T17:41:31.912Z,15.73
2018-12-15T17:44:00.635Z,14.80
2018-12-15T17:46:29.732Z,15.00
2018-12-15T17:48:59.485Z,15.77
2018-12-15T17:51:28.229Z,14.43
2018-12-15T17:53:58.023Z,14.87
2018-12-15T17:56:29.856Z,14.73
2018-12-15T17:58:59.511Z,14.83
2018-12-15T18:01:28.366Z,15.00
2018-12-15T18:03:57.122Z,14.90
2018-12-15T18:06:25.961Z,13.63
2018-12-15T18:08:54.938Z,14.40
2018-12-15T18:11:23.623Z,14.47
2018-12-15T18:13:52.369Z,14.35
2018-12-15T18:16:21.205Z,13.80
2018-12-15T18:18:50.300Z,14.67
2018-12-15T18:21:19.323Z,16.13
2018-12-15T18:23:48.036Z,15.00
2018-12-15T18:26:16.720Z,15.50
2018-12-15T18:28:46.136Z,15.00
2018-12-15T18:31:14.969Z,14.73
2018-12-15T18:33:43.655Z,14.23
2018-12-15T18:36:12.648Z,13.65
2018-12-15T18:38:41.280Z,16.97
2018-12-15T18:41:09.992Z,15.57
2018-12-15T18:43:38.780Z,15.63
2018-12-15T18:46:07.491Z,15.00
2018-12-15T18:48:36.572Z,14.07
2018-12-15T18:51:05.457Z,14.05
2018-12-15T18:53:34.154Z,14.37
2018-12-15T18:56:03.033Z,12.90
2018-12-15T18:58:31.860Z,12.40
2018-12-15T19:01:00.581Z,13.67
2018-12-15T19:03:29.504Z,12.00
2018-12-15T19:05:58.601Z,13.27
2018-12-15T19:08:27.357Z,12.23
2018-12-15T19:10:56.098Z,12.10
2018-12-15T19:13:25.101Z,12.17
2018-12-15T19:15:53.780Z,11.50
2018-12-15T19:18:22.510Z,11.10
2018-12-15T19:20:51.430Z,11.57
2018-12-15T19:23:20.070Z,11.63
2018-12-15T19:25:48.772Z,12.70
2018-12-15T19:28:17.624Z,13.37
2018-12-15T19:30:46.291Z,12.07
2018-12-15T19:33:15.099Z,13.17
2018-12-15T19:35:43.841Z,12.00
2018-12-15T19:38:12.476Z,11.60
2018-12-15T19:40:41.131Z,11.37
2018-12-15T19:43:10.483Z,11.93
2018-12-15T19:45:39.175Z,11.37
2018-12-15T19:48:07.881Z,12.53
2018-12-15T19:50:36.635Z,12.25
2018-12-15T19:53:05.406Z,10.93
2018-12-15T19:55:34.718Z,12.20
2018-12-15T19:58:03.635Z,12.50
2018-12-15T20:00:32.395Z,11.97
2018-12-15T20:03:01.165Z,11.70
2018-12-15T20:05:29.975Z,11.80
2018-12-15T20:07:59.605Z,11.55
2018-12-15T20:10:28.714Z,11.07
2018-12-15T20:12:57.591Z,12.03
2018-12-15T20:15:26.464Z,11.33
2018-12-15T20:17:57.946Z,13.17
2018-12-15T20:20:27.010Z,12.40
2018-12-15T20:22:55.731Z,12.80
2018-12-15T20:25:24.519Z,11.38
2018-12-15T20:27:53.536Z,12.40
2018-12-15T20:30:22.273Z,12.43
2018-12-15T20:32:51.027Z,12.20
2018-12-15T20:35:19.948Z,12.87
2018-12-15T20:37:48.692Z,12.40
2018-12-15T20:40:17.480Z,12.87
2018-12-15T20:42:46.405Z,13.57
2018-12-15T20:45:15.215Z,12.13
2018-12-15T20:47:44.162Z,10.43
2018-12-15T20:50:13.177Z,11.00
2018-12-15T20:52:47.394Z,11.57
2018-12-15T20:55:12.824Z,11.65
2018-12-15T20:57:41.669Z,11.38
2018-12-15T21:00:10.706Z,11.20
2018-12-15T21:02:39.348Z,10.83
2018-12-15T21:05:08.519Z,10.68
2018-12-15T21:07:37.234Z,11.13
2018-12-15T21:10:07.454Z,10.73
2018-12-15T21:12:36.285Z,10.70
2018-12-15T21:15:10.767Z,11.13
2018-12-15T21:17:39.753Z,10.32
2018-12-15T21:20:09.950Z,9.70
2018-12-15T21:22:38.919Z,10.73
2018-12-15T21:25:07.933Z,11.10
2018-12-15T21:27:36.684Z,10.98
2018-12-15T21:30:06.691Z,9.90
2018-12-15T21:32:35.557Z,10.93
2018-12-15T21:35:04.654Z,10.63
2018-12-15T21:37:33.523Z,9.97
2018-12-15T21:40:02.556Z,10.97
2018-12-15T21:42:31.783Z,10.43
2018-12-15T21:45:00.775Z,11.03
2018-12-15T21:47:29.680Z,10.65
2018-12-15T21:49:58.481Z,10.37
2018-12-15T21:52:27.238Z,10.80
2018-12-15T21:54:56.189Z,11.00
2018-12-15T21:57:24.911Z,11.60
2018-12-15T21:59:53.829Z,12.80
2018-12-15T22:02:22.732Z,11.57
2018-12-15T22:04:51.432Z,10.63
2018-12-15T22:07:20.133Z,12.07
2018-12-15T22:09:48.926Z,11.47
2018-12-15T22:12:17.776Z,11.43
2018-12-15T22:14:46.509Z,12.15
2018-12-15T22:17:15.458Z,12.00
2018-12-15T22:19:44.223Z,11.77
2018-12-15T22:22:13.011Z,11.67
2018-12-15T22:24:42.349Z,12.55
2018-12-15T22:27:11.100Z,13.30
2018-12-15T22:29:39.856Z,12.90
2018-12-15T22:32:08.743Z,12.80
2018-12-15T22:34:37.479Z,14.63
2018-12-15T22:37:06.312Z,13.80
2018-12-15T22:39:35.493Z,14.27
2018-12-15T22:42:05.174Z,14.40
2018-12-15T22:44:33.964Z,13.60
2018-12-15T22:47:03.112Z,13.88
2018-12-15T22:49:31.879Z,14.20
2018-12-15T22:52:00.667Z,15.45
2018-12-15T22:54:29.995Z,14.28
2018-12-15T22:56:59.884Z,14.05
2018-12-15T22:59:28.672Z,14.30
2018-12-15T23:01:58.461Z,15.20
2018-12-15T23:04:27.507Z,15.33
2018-12-15T23:06:57.103Z,16.70
2018-12-15T23:09:26.344Z,15.60
2018-12-15T23:11:55.113Z,15.23
2018-12-15T23:14:24.061Z,15.80
2018-12-15T23:16:52.951Z,16.50
2018-12-15T23:19:22.380Z,15.97
2018-12-15T23:21:51.109Z,16.97
2018-12-15T23:24:19.903Z,16.77
2018-12-15T23:26:48.667Z,17.23
2018-12-15T23:29:17.508Z,17.70
2018-12-15T23:31:46.633Z,17.10
2018-12-15T23:34:15.315Z,17.13
2018-12-15T23:36:44.106Z,17.03
2018-12-15T23:39:13.035Z,17.60
2018-12-15T23:41:42.089Z,18.95
2018-12-15T23:44:10.995Z,17.77
2018-12-15T23:46:39.978Z,19.12
2018-12-15T23:49:08.701Z,19.12
2018-12-15T23:51:37.406Z,19.75
2018-12-15T23:54:06.233Z,19.40
2018-12-15T23:56:35.019Z,22.27
2018-12-15T23:59:03.880Z,20.87
